Time;durP1;ratioP1;P1;durP2;ratioP2;P2;SDS_P1;SDS_P2;PMS_P1;PMS_P2;Temp;Humidity;BMP_temperature;BMP_pressure;BME280_temperature;BME280_humidity;BME280_pressure;Samples;Min_cycle;Max_cycle;Signal;HPM_P1;HPM_P2
2023/09/01 00:39:13;;;;;;;16.02;6.53;;;11.00;99.90;;;;;;6252871;23;20349;-86
2023/09/01 02:28:42;;;;;;;;;;;;;;;;;;;;;
2023/09/01 02:35:55;;;;;;;12.85;6.55;;;10.90;99.90;;;;;;6036420;23;20074;-85
2023/09/01 04:39:54;;;;;;;11.40;6.00;;;10.50;99.90;;;;;;5841351;24;20452;-85
2023/09/01 06:34:50;;;;;;;24.50;15.07;;;12.20;99.90;;;;;;6057411;23;20026;-84
2023/09/01 06:37:41;;;;;;;26.08;14.85;;;12.40;99.90;;;;;;6072916;23;20302;-83
2023/09/01 06:40:40;;;;;;;;;;;;;;;;;;;;;
2023/09/01 06:43:22;;;;;;;25.08;15.13;;;12.60;99.90;;;;;;6183578;23;20015;-85
2023/09/01 06:46:16;;;;;;;24.83;15.13;;;12.70;99.90;;;;;;6243411;23;20120;-84
2023/09/01 06:48:50;;;;;;;23.73;14.88;;;12.80;99.90;;;;;;6105694;23;20387;-83
2023/09/01 06:51:34;;;;;;;24.23;14.77;;;12.90;99.90;;;;;;6218562;23;20020;-83
2023/09/01 06:54:18;;;;;;;;;;;12.70;99.90;;;;;;6217834;23;20413;-83
2023/09/01 06:56:50;;;;;;;26.67;14.88;;;12.80;99.90;;;;;;6245209;23;20328;-84
2023/09/01 06:59:37;;;;;;;23.27;14.73;;;14.30;99.90;;;;;;6245340;23;20474;-84
2023/09/01 07:02:15;;;;;;;24.55;14.07;;;13.20;99.90;;;;;;6217065;23;20090;-84
2023/09/01 07:04:59;;;;;;;27.42;15.10;;;13.20;99.90;;;;;;6245211;23;20020;-84
2023/09/01 07:11:57;;;;;;;28.13;15.77;;;13.40;99.90;;;;;;6245336;23;20091;-84
2023/09/01 07:14:35;;;;;;;23.58;14.40;;;13.50;99.90;;;;;;6252538;22;20016;-86
2023/09/01 07:17:22;;;;;;;26.40;16.15;;;14.90;99.90;;;;;;6309921;22;20029;-85
2023/09/01 07:20:12;;;;;;;24.05;14.55;;;13.50;99.90;;;;;;6309768;22;20019;-84
2023/09/01 07:22:47;;;;;;;24.45;14.45;;;13.40;99.90;;;;;;6308818;22;20050;-85
2023/09/01 07:39:28;;;;;;;24.60;14.90;;;14.70;99.90;;;;;;6270074;22;20035;-86
2023/09/01 07:41:54;;;;;;;23.40;14.18;;;14.60;99.90;;;;;;6275361;22;20027;-87
2023/09/01 07:57:03;;;;;;;24.98;15.02;;;15.20;99.90;;;;;;6126312;23;20096;-86
2023/09/01 08:03:29;;;;;;;24.05;13.65;;;15.50;99.90;;;;;;6070083;23;20025;-86
2023/09/01 08:06:01;;;;;;;20.63;13.70;;;15.60;99.90;;;;;;6250417;22;20095;-85
2023/09/01 08:08:29;;;;;;;25.00;14.80;;;15.80;99.90;;;;;;6273813;22;20020;-85
2023/09/01 08:10:55;;;;;;;21.98;13.48;;;15.80;99.90;;;;;;6274527;22;20012;-86
2023/09/01 08:20:56;;;;;;;21.80;14.45;;;16.00;99.90;;;;;;6274193;22;20028;-88
2023/09/01 08:24:23;;;;;;;21.80;14.13;;;16.20;99.90;;;;;;6274019;22;20026;-88
2023/09/01 08:27:13;;;;;;;21.13;14.43;;;16.10;99.90;;;;;;6275274;22;20075;-87
2023/09/01 08:29:56;;;;;;;24.70;15.18;;;16.20;99.90;;;;;;6272634;22;20022;-88
2023/09/01 08:34:56;;;;;;;21.08;14.57;;;16.40;99.90;;;;;;6270407;22;20551;-86
2023/09/01 08:38:24;;;;;;;23.85;14.18;;;16.50;99.90;;;;;;6277894;22;20022;-90
2023/09/01 08:41:15;;;;;;;24.63;15.07;;;16.40;99.90;;;;;;6275519;22;20016;-94
2023/09/01 08:44:05;;;;;;;25.13;15.70;;;16.60;99.90;;;;;;6277452;22;20047;-93
2023/09/01 08:46:47;;;;;;;24.15;14.52;;;16.70;99.90;;;;;;6276407;22;20019;-89
2023/09/01 08:49:13;;;;;;;24.30;15.20;;;16.80;99.90;;;;;;6275873;22;20090;-88
2023/09/01 08:52:04;;;;;;;20.90;14.00;;;16.90;99.90;;;;;;6277062;22;20052;-91
2023/09/01 08:58:18;;;;;;;23.45;14.55;;;17.20;99.90;;;;;;6274842;22;20019;-91
2023/09/01 09:00:58;;;;;;;24.25;13.00;;;17.20;99.90;;;;;;6273346;22;20016;-90
2023/09/01 09:08:06;;;;;;;23.23;14.07;;;17.40;99.90;;;;;;6185019;23;20017;-90
2023/09/01 09:10:56;;;;;;;23.90;13.48;;;18.10;99.90;;;;;;6185984;23;20092;-89
2023/09/01 09:13:32;;;;;;;22.15;13.38;;;17.50;99.90;;;;;;6185817;23;20017;-90
2023/09/01 09:16:07;;;;;;;22.10;13.32;;;17.60;99.90;;;;;;6159934;23;20017;-90
2023/09/01 09:18:42;;;;;;;22.05;12.15;;;17.60;99.90;;;;;;6158810;23;20449;-89
2023/09/01 09:21:43;;;;;;;20.08;12.65;;;18.00;99.90;;;;;;6158025;23;20342;-88
2023/09/01 09:27:22;;;;;;;20.35;13.07;;;17.80;99.90;;;;;;6277207;22;20016;-89
2023/09/01 09:29:53;;;;;;;20.23;12.38;;;18.00;99.90;;;;;;6274510;22;20395;-89
2023/09/01 09:32:21;;;;;;;21.80;12.23;;;18.20;99.90;;;;;;6277560;22;20047;-89
2023/09/01 09:35:05;;;;;;;19.15;12.15;;;18.30;99.90;;;;;;6274688;22;20015;-89
2023/09/01 09:38:00;;;;;;;21.15;12.05;;;18.20;99.90;;;;;;6274627;22;20111;-90
2023/09/01 09:41:13;;;;;;;21.17;12.10;;;18.20;99.90;;;;;;6277554;22;20017;-89
2023/09/01 09:43:46;;;;;;;19.15;12.18;;;18.30;99.90;;;;;;6280288;22;20012;-90
2023/09/01 09:49:25;;;;;;;20.92;10.93;;;18.50;99.90;;;;;;6274335;22;20333;-89
2023/09/01 09:52:13;;;;;;;17.70;9.68;;;18.60;99.90;;;;;;6275077;22;20089;-90
2023/09/01 09:55:02;;;;;;;17.38;9.23;;;18.60;99.90;;;;;;6275515;22;20015;-90
2023/09/01 09:57:31;;;;;;;15.43;8.45;;;18.60;99.90;;;;;;6274729;22;20015;-90
2023/09/01 10:05:59;;;;;;;18.52;7.45;;;18.70;99.90;;;;;;6248485;22;20049;-89
2023/09/01 10:08:31;;;;;;;16.58;9.20;;;18.80;99.90;;;;;;6275097;22;20022;-86
2023/09/01 10:11:17;;;;;;;16.40;8.95;;;19.00;99.90;;;;;;6275710;22;20033;-87
2023/09/01 10:14:17;;;;;;;16.58;9.35;;;19.00;99.90;;;;;;6274664;22;20027;-86
2023/09/01 10:16:44;;;;;;;16.70;8.48;;;19.10;99.90;;;;;;6247829;22;20019;-87
2023/09/01 10:21:48;;;;;;;16.08;8.15;;;18.90;99.90;;;;;;6269806;22;20023;-91
2023/09/01 10:24:17;;;;;;;15.43;7.57;;;18.80;99.90;;;;;;6274913;22;20020;-87
2023/09/01 10:27:15;;;;;;;18.30;7.68;;;18.70;99.90;;;;;;6276127;22;20016;-87
2023/09/01 10:29:56;;;;;;;16.55;8.32;;;18.70;99.90;;;;;;6274863;22;20090;-87
2023/09/01 10:32:26;;;;;;;15.73;7.45;;;18.80;99.90;;;;;;6273713;22;20015;-87
2023/09/01 10:35:48;;;;;;;16.27;7.55;;;18.90;99.90;;;;;;6276118;22;20073;-87
2023/09/01 10:38:48;;;;;;;12.38;6.55;;;18.60;99.90;;;;;;6273863;22;20062;-86
2023/09/01 10:41:51;;;;;;;14.70;6.70;;;18.90;99.90;;;;;;6276675;22;20083;-86
2023/09/01 10:44:17;;;;;;;15.20;6.70;;;18.70;99.90;;;;;;6276405;22;20101;-86
2023/09/01 10:46:42;;;;;;;13.55;6.53;;;19.00;99.90;;;;;;6275903;22;20420;-86
2023/09/01 10:49:52;;;;;;;14.93;6.57;;;19.00;99.90;;;;;;6274342;22;20015;-87
2023/09/01 10:52:28;;;;;;;15.85;7.57;;;19.00;99.90;;;;;;6273723;22;20049;-87
2023/09/01 10:55:05;;;;;;;17.08;7.40;;;18.90;99.90;;;;;;6282618;22;20027;-89
2023/09/01 10:57:51;;;;;;;17.00;7.15;;;18.80;99.90;;;;;;6280467;22;20011;-87
2023/09/01 11:00:49;;;;;;;16.00;6.63;;;18.70;99.90;;;;;;6279864;22;20094;-91
2023/09/01 11:03:45;;;;;;;14.85;6.75;;;18.80;99.90;;;;;;6280669;22;20015;-87
2023/09/01 11:06:22;;;;;;;15.40;7.05;;;18.10;99.90;;;;;;6278422;22;20540;-90
2023/09/01 11:09:07;;;;;;;13.57;6.65;;;18.50;99.90;;;;;;6307331;22;20011;-88
2023/09/01 11:11:32;;;;;;;14.98;6.43;;;18.40;99.90;;;;;;6279688;22;20335;-89
2023/09/01 11:14:20;;;;;;;13.13;6.32;;;18.40;99.90;;;;;;6278316;22;20054;-88
2023/09/01 11:17:00;;;;;;;13.55;6.80;;;18.00;99.90;;;;;;6278572;22;20007;-89
2023/09/01 11:19:26;;;;;;;13.63;6.00;;;18.30;99.90;;;;;;6279598;22;20448;-88
2023/09/01 11:21:52;;;;;;;17.00;6.70;;;18.40;99.90;;;;;;6278226;22;20086;-89
2023/09/01 11:24:32;;;;;;;16.55;6.40;;;18.70;99.90;;;;;;6307090;22;20161;-89
2023/09/01 11:26:58;;;;;;;13.77;6.03;;;18.40;99.90;;;;;;6278215;22;20015;-88
2023/09/01 11:29:24;;;;;;;14.50;5.70;;;18.40;99.90;;;;;;6307484;22;20340;-89
2023/09/01 11:31:56;;;;;;;12.35;6.25;;;18.40;99.90;;;;;;6281458;22;20427;-89
2023/09/01 11:34:21;;;;;;;17.30;6.50;;;18.40;99.90;;;;;;6308540;22;20019;-89
2023/09/01 11:36:51;;;;;;;13.73;6.25;;;18.40;99.90;;;;;;6307517;22;20049;-88
2023/09/01 11:39:23;;;;;;;14.65;6.80;;;18.40;99.90;;;;;;6280664;22;20026;-88
2023/09/01 11:42:01;;;;;;;15.73;6.57;;;18.50;99.90;;;;;;6305106;22;20439;-88
2023/09/01 11:44:27;;;;;;;14.05;6.10;;;18.50;99.90;;;;;;6279104;22;20023;-87
2023/09/01 11:47:11;;;;;;;14.07;5.57;;;18.60;99.90;;;;;;6305983;22;20015;-87
2023/09/01 11:50:14;;;;;;;13.90;5.60;;;18.60;99.90;;;;;;6305324;22;20482;-88
2023/09/01 11:52:54;;;;;;;15.03;5.80;;;18.20;99.90;;;;;;6277804;22;20033;-87
2023/09/01 11:55:46;;;;;;;13.70;5.97;;;18.60;99.90;;;;;;6278065;22;20336;-87
2023/09/01 11:59:05;;;;;;;15.27;5.53;;;18.70;99.90;;;;;;6278645;22;20016;-88
2023/09/01 12:01:38;;;;;;;13.38;5.90;;;18.70;99.90;;;;;;6151418;23;20022;-87
2023/09/01 12:07:46;;;;;;;13.10;6.22;;;18.60;99.90;;;;;;6306175;22;20327;-87
2023/09/01 12:10:42;;;;;;;13.82;6.32;;;18.70;99.90;;;;;;6276931;22;20018;-88
2023/09/01 12:13:23;;;;;;;15.93;6.85;;;18.70;99.90;;;;;;6280205;22;20023;-94
2023/09/01 12:19:17;;;;;;;14.48;5.90;;;18.80;99.90;;;;;;6267905;22;20020;-93
2023/09/01 16:15:01;;;;;;;11.93;5.82;;;20.00;99.90;;;;;;6209750;23;20131;-84
2023/09/01 20:42:42;;;;;;;15.68;10.25;;;14.20;99.90;;;;;;6306435;22;20034;-85
